sensor_id;sensor_type;location;lat;lon;timestamp;P1;durP1;ratioP1;P2;durP2;ratioP2
17079;SDS011;8655;57.106;-2.088;2023-11-22T00:00:04;2.33;;;1.10;;
17079;SDS011;8655;57.106;-2.088;2023-11-22T00:02:31;1.00;;;0.90;;
17079;SDS011;8655;57.106;-2.088;2023-11-22T00:04:56;1.07;;;0.93;;
17079;SDS011;8655;57.106;-2.088;2023-11-22T00:07:23;1.90;;;1.10;;
17079;SDS011;8655;57.106;-2.088;2023-11-22T00:09:48;1.70;;;1.00;;
17079;SDS011;8655;57.106;-2.088;2023-11-22T00:12:14;1.33;;;0.77;;
17079;SDS011;8655;57.106;-2.088;2023-11-22T00:14:42;1.00;;;0.83;;
17079;SDS011;8655;57.106;-2.088;2023-11-22T00:17:08;1.70;;;0.87;;
17079;SDS011;8655;57.106;-2.088;2023-11-22T00:19:35;1.60;;;1.00;;
17079;SDS011;8655;57.106;-2.088;2023-11-22T00:22:01;1.17;;;0.80;;
17079;SDS011;8655;57.106;-2.088;2023-11-22T00:24:35;1.10;;;0.90;;
17079;SDS011;8655;57.106;-2.088;2023-11-22T00:27:00;1.33;;;0.93;;
17079;SDS011;8655;57.106;-2.088;2023-11-22T00:29:26;1.60;;;1.03;;
17079;SDS011;8655;57.106;-2.088;2023-11-22T00:31:52;0.80;;;0.77;;
17079;SDS011;8655;57.106;-2.088;2023-11-22T00:34:17;0.87;;;0.83;;
17079;SDS011;8655;57.106;-2.088;2023-11-22T00:36:43;0.97;;;0.80;;
17079;SDS011;8655;57.106;-2.088;2023-11-22T00:39:09;0.97;;;0.83;;
17079;SDS011;8655;57.106;-2.088;2023-11-22T00:41:38;1.13;;;0.80;;
17079;SDS011;8655;57.106;-2.088;2023-11-22T00:44:04;1.13;;;0.80;;
17079;SDS011;8655;57.106;-2.088;2023-11-22T00:46:31;1.17;;;0.90;;
17079;SDS011;8655;57.106;-2.088;2023-11-22T00:48:57;1.90;;;1.00;;
17079;SDS011;8655;57.106;-2.088;2023-11-22T00:51:22;1.57;;;1.00;;
17079;SDS011;8655;57.106;-2.088;2023-11-22T00:53:48;0.70;;;0.70;;
17079;SDS011;8655;57.106;-2.088;2023-11-22T00:56:14;1.07;;;0.97;;
17079;SDS011;8655;57.106;-2.088;2023-11-22T00:58:40;0.93;;;0.80;;
17079;SDS011;8655;57.106;-2.088;2023-11-22T01:01:07;1.60;;;0.70;;
17079;SDS011;8655;57.106;-2.088;2023-11-22T01:03:33;1.10;;;0.70;;
17079;SDS011;8655;57.106;-2.088;2023-11-22T01:06:00;1.40;;;0.87;;
17079;SDS011;8655;57.106;-2.088;2023-11-22T01:08:26;0.83;;;0.60;;
17079;SDS011;8655;57.106;-2.088;2023-11-22T01:10:52;1.23;;;0.83;;
17079;SDS011;8655;57.106;-2.088;2023-11-22T01:13:17;1.33;;;0.73;;
17079;SDS011;8655;57.106;-2.088;2023-11-22T01:15:43;1.47;;;0.80;;
17079;SDS011;8655;57.106;-2.088;2023-11-22T01:18:09;1.80;;;0.80;;
17079;SDS011;8655;57.106;-2.088;2023-11-22T01:20:35;1.83;;;0.70;;
17079;SDS011;8655;57.106;-2.088;2023-11-22T01:23:01;1.10;;;0.73;;
17079;SDS011;8655;57.106;-2.088;2023-11-22T01:25:26;0.73;;;0.60;;
17079;SDS011;8655;57.106;-2.088;2023-11-22T01:27:53;0.93;;;0.77;;
17079;SDS011;8655;57.106;-2.088;2023-11-22T01:30:19;1.10;;;0.87;;
17079;SDS011;8655;57.106;-2.088;2023-11-22T01:32:44;1.20;;;0.80;;
17079;SDS011;8655;57.106;-2.088;2023-11-22T01:35:10;0.90;;;0.70;;
17079;SDS011;8655;57.106;-2.088;2023-11-22T01:37:36;1.63;;;0.87;;
17079;SDS011;8655;57.106;-2.088;2023-11-22T01:40:02;0.87;;;0.70;;
17079;SDS011;8655;57.106;-2.088;2023-11-22T01:42:29;0.97;;;0.80;;
17079;SDS011;8655;57.106;-2.088;2023-11-22T01:44:55;1.50;;;0.80;;
17079;SDS011;8655;57.106;-2.088;2023-11-22T01:47:21;0.90;;;0.67;;
17079;SDS011;8655;57.106;-2.088;2023-11-22T01:49:47;1.00;;;0.90;;
17079;SDS011;8655;57.106;-2.088;2023-11-22T01:52:13;0.80;;;0.80;;
17079;SDS011;8655;57.106;-2.088;2023-11-22T01:54:39;1.37;;;0.80;;
17079;SDS011;8655;57.106;-2.088;2023-11-22T01:57:07;1.10;;;0.70;;
17079;SDS011;8655;57.106;-2.088;2023-11-22T01:59:33;1.40;;;0.80;;
17079;SDS011;8655;57.106;-2.088;2023-11-22T02:01:59;1.30;;;0.70;;
17079;SDS011;8655;57.106;-2.088;2023-11-22T02:04:25;0.90;;;0.70;;
17079;SDS011;8655;57.106;-2.088;2023-11-22T02:06:51;0.63;;;0.60;;
17079;SDS011;8655;57.106;-2.088;2023-11-22T02:09:17;1.27;;;0.70;;
17079;SDS011;8655;57.106;-2.088;2023-11-22T02:11:43;0.87;;;0.80;;
17079;SDS011;8655;57.106;-2.088;2023-11-22T02:14:14;0.57;;;0.57;;
17079;SDS011;8655;57.106;-2.088;2023-11-22T02:16:40;0.97;;;0.60;;
17079;SDS011;8655;57.106;-2.088;2023-11-22T02:19:06;2.07;;;0.90;;
17079;SDS011;8655;57.106;-2.088;2023-11-22T02:21:38;2.53;;;0.83;;
17079;SDS011;8655;57.106;-2.088;2023-11-22T02:24:04;1.00;;;0.80;;
17079;SDS011;8655;57.106;-2.088;2023-11-22T02:26:30;0.97;;;0.80;;
17079;SDS011;8655;57.106;-2.088;2023-11-22T02:28:56;0.77;;;0.60;;
17079;SDS011;8655;57.106;-2.088;2023-11-22T02:31:22;1.17;;;0.83;;
17079;SDS011;8655;57.106;-2.088;2023-11-22T02:33:49;1.10;;;0.80;;
17079;SDS011;8655;57.106;-2.088;2023-11-22T02:36:14;1.87;;;0.90;;
17079;SDS011;8655;57.106;-2.088;2023-11-22T02:38:40;1.23;;;0.80;;
17079;SDS011;8655;57.106;-2.088;2023-11-22T02:41:07;1.50;;;0.80;;
17079;SDS011;8655;57.106;-2.088;2023-11-22T02:43:34;0.80;;;0.70;;
17079;SDS011;8655;57.106;-2.088;2023-11-22T02:46:00;0.90;;;0.80;;
17079;SDS011;8655;57.106;-2.088;2023-11-22T02:48:28;1.10;;;0.80;;
17079;SDS011;8655;57.106;-2.088;2023-11-22T02:50:53;1.43;;;0.80;;
17079;SDS011;8655;57.106;-2.088;2023-11-22T02:53:20;1.87;;;0.80;;
17079;SDS011;8655;57.106;-2.088;2023-11-22T02:55:46;0.80;;;0.80;;
17079;SDS011;8655;57.106;-2.088;2023-11-22T02:58:12;1.47;;;0.63;;
17079;SDS011;8655;57.106;-2.088;2023-11-22T03:00:39;1.30;;;0.83;;
17079;SDS011;8655;57.106;-2.088;2023-11-22T03:03:06;1.33;;;0.70;;
17079;SDS011;8655;57.106;-2.088;2023-11-22T03:05:35;0.70;;;0.60;;
17079;SDS011;8655;57.106;-2.088;2023-11-22T03:08:05;0.80;;;0.80;;
17079;SDS011;8655;57.106;-2.088;2023-11-22T03:14:00;1.70;;;0.80;;
17079;SDS011;8655;57.106;-2.088;2023-11-22T03:16:28;1.50;;;0.73;;
17079;SDS011;8655;57.106;-2.088;2023-11-22T03:18:54;0.77;;;0.73;;
17079;SDS011;8655;57.106;-2.088;2023-11-22T03:21:23;1.07;;;0.77;;
17079;SDS011;8655;57.106;-2.088;2023-11-22T03:23:51;1.33;;;0.73;;
17079;SDS011;8655;57.106;-2.088;2023-11-22T03:26:16;0.80;;;0.80;;
17079;SDS011;8655;57.106;-2.088;2023-11-22T03:28:42;0.70;;;0.70;;
17079;SDS011;8655;57.106;-2.088;2023-11-22T03:31:08;0.37;;;0.30;;
17079;SDS011;8655;57.106;-2.088;2023-11-22T03:33:35;0.87;;;0.60;;
17079;SDS011;8655;57.106;-2.088;2023-11-22T03:36:00;0.63;;;0.63;;
17079;SDS011;8655;57.106;-2.088;2023-11-22T03:38:27;1.23;;;0.90;;
17079;SDS011;8655;57.106;-2.088;2023-11-22T03:40:53;0.73;;;0.60;;
17079;SDS011;8655;57.106;-2.088;2023-11-22T03:43:19;0.70;;;0.70;;
17079;SDS011;8655;57.106;-2.088;2023-11-22T03:45:44;0.80;;;0.67;;
17079;SDS011;8655;57.106;-2.088;2023-11-22T03:48:10;1.60;;;0.70;;
17079;SDS011;8655;57.106;-2.088;2023-11-22T03:50:37;0.83;;;0.83;;
17079;SDS011;8655;57.106;-2.088;2023-11-22T03:53:02;1.53;;;0.97;;
17079;SDS011;8655;57.106;-2.088;2023-11-22T03:55:28;1.00;;;0.60;;
17079;SDS011;8655;57.106;-2.088;2023-11-22T03:57:54;0.70;;;0.70;;
17079;SDS011;8655;57.106;-2.088;2023-11-22T04:00:20;0.60;;;0.60;;
17079;SDS011;8655;57.106;-2.088;2023-11-22T04:02:45;0.53;;;0.50;;
17079;SDS011;8655;57.106;-2.088;2023-11-22T04:05:11;0.87;;;0.73;;
17079;SDS011;8655;57.106;-2.088;2023-11-22T04:07:37;1.53;;;0.83;;
17079;SDS011;8655;57.106;-2.088;2023-11-22T04:10:04;0.60;;;0.60;;
17079;SDS011;8655;57.106;-2.088;2023-11-22T04:12:31;0.63;;;0.60;;
17079;SDS011;8655;57.106;-2.088;2023-11-22T04:14:57;1.73;;;0.83;;
17079;SDS011;8655;57.106;-2.088;2023-11-22T04:17:23;0.80;;;0.60;;
17079;SDS011;8655;57.106;-2.088;2023-11-22T04:19:48;0.90;;;0.70;;
17079;SDS011;8655;57.106;-2.088;2023-11-22T04:22:14;1.07;;;0.77;;
17079;SDS011;8655;57.106;-2.088;2023-11-22T04:24:40;0.53;;;0.53;;
17079;SDS011;8655;57.106;-2.088;2023-11-22T04:27:05;0.80;;;0.77;;
17079;SDS011;8655;57.106;-2.088;2023-11-22T04:29:31;2.10;;;0.70;;
17079;SDS011;8655;57.106;-2.088;2023-11-22T04:31:57;1.20;;;0.73;;
17079;SDS011;8655;57.106;-2.088;2023-11-22T04:34:22;0.53;;;0.50;;
17079;SDS011;8655;57.106;-2.088;2023-11-22T04:36:48;0.73;;;0.60;;
17079;SDS011;8655;57.106;-2.088;2023-11-22T04:39:13;0.70;;;0.67;;
17079;SDS011;8655;57.106;-2.088;2023-11-22T04:41:40;0.83;;;0.53;;
17079;SDS011;8655;57.106;-2.088;2023-11-22T04:44:06;0.70;;;0.70;;
17079;SDS011;8655;57.106;-2.088;2023-11-22T04:46:31;0.80;;;0.70;;
17079;SDS011;8655;57.106;-2.088;2023-11-22T04:48:57;1.23;;;0.80;;
17079;SDS011;8655;57.106;-2.088;2023-11-22T04:51:23;0.73;;;0.70;;
17079;SDS011;8655;57.106;-2.088;2023-11-22T04:53:49;1.33;;;1.10;;
17079;SDS011;8655;57.106;-2.088;2023-11-22T04:56:16;1.33;;;0.70;;
17079;SDS011;8655;57.106;-2.088;2023-11-22T04:58:42;0.77;;;0.60;;
17079;SDS011;8655;57.106;-2.088;2023-11-22T05:01:07;0.60;;;0.60;;
17079;SDS011;8655;57.106;-2.088;2023-11-22T05:03:34;0.70;;;0.60;;
17079;SDS011;8655;57.106;-2.088;2023-11-22T05:06:00;0.73;;;0.70;;
17079;SDS011;8655;57.106;-2.088;2023-11-22T05:08:26;0.83;;;0.60;;
17079;SDS011;8655;57.106;-2.088;2023-11-22T05:10:52;0.53;;;0.50;;
17079;SDS011;8655;57.106;-2.088;2023-11-22T05:13:18;0.70;;;0.60;;
17079;SDS011;8655;57.106;-2.088;2023-11-22T05:15:43;0.67;;;0.60;;
17079;SDS011;8655;57.106;-2.088;2023-11-22T05:18:09;0.73;;;0.60;;
17079;SDS011;8655;57.106;-2.088;2023-11-22T05:20:35;0.70;;;0.70;;
17079;SDS011;8655;57.106;-2.088;2023-11-22T05:23:00;1.37;;;0.73;;
17079;SDS011;8655;57.106;-2.088;2023-11-22T05:25:26;0.80;;;0.80;;
17079;SDS011;8655;57.106;-2.088;2023-11-22T05:27:52;0.70;;;0.67;;
17079;SDS011;8655;57.106;-2.088;2023-11-22T05:30:17;0.70;;;0.63;;
17079;SDS011;8655;57.106;-2.088;2023-11-22T05:32:43;0.60;;;0.60;;
17079;SDS011;8655;57.106;-2.088;2023-11-22T05:35:09;1.00;;;0.60;;
17079;SDS011;8655;57.106;-2.088;2023-11-22T05:37:35;0.87;;;0.60;;
17079;SDS011;8655;57.106;-2.088;2023-11-22T05:40:02;0.50;;;0.47;;
17079;SDS011;8655;57.106;-2.088;2023-11-22T05:42:29;0.90;;;0.50;;
17079;SDS011;8655;57.106;-2.088;2023-11-22T05:44:55;0.63;;;0.57;;
17079;SDS011;8655;57.106;-2.088;2023-11-22T05:47:21;1.97;;;0.70;;
17079;SDS011;8655;57.106;-2.088;2023-11-22T05:49:47;0.50;;;0.50;;
17079;SDS011;8655;57.106;-2.088;2023-11-22T05:52:13;0.60;;;0.60;;
17079;SDS011;8655;57.106;-2.088;2023-11-22T05:54:38;0.93;;;0.73;;
17079;SDS011;8655;57.106;-2.088;2023-11-22T05:57:04;0.90;;;0.67;;
17079;SDS011;8655;57.106;-2.088;2023-11-22T05:59:30;1.33;;;0.60;;
17079;SDS011;8655;57.106;-2.088;2023-11-22T06:01:56;0.70;;;0.60;;
17079;SDS011;8655;57.106;-2.088;2023-11-22T06:04:21;0.60;;;0.60;;
17079;SDS011;8655;57.106;-2.088;2023-11-22T06:06:47;0.60;;;0.60;;
17079;SDS011;8655;57.106;-2.088;2023-11-22T06:09:12;1.00;;;0.73;;
17079;SDS011;8655;57.106;-2.088;2023-11-22T06:11:39;0.50;;;0.50;;
17079;SDS011;8655;57.106;-2.088;2023-11-22T06:14:05;1.00;;;0.60;;
17079;SDS011;8655;57.106;-2.088;2023-11-22T06:16:31;0.53;;;0.53;;
17079;SDS011;8655;57.106;-2.088;2023-11-22T06:18:56;1.03;;;0.60;;
17079;SDS011;8655;57.106;-2.088;2023-11-22T06:21:22;1.20;;;0.70;;
17079;SDS011;8655;57.106;-2.088;2023-11-22T06:23:51;0.57;;;0.57;;
17079;SDS011;8655;57.106;-2.088;2023-11-22T06:26:20;0.50;;;0.50;;
17079;SDS011;8655;57.106;-2.088;2023-11-22T06:28:46;0.50;;;0.50;;
17079;SDS011;8655;57.106;-2.088;2023-11-22T06:31:14;0.50;;;0.50;;
17079;SDS011;8655;57.106;-2.088;2023-11-22T06:33:40;0.50;;;0.50;;
17079;SDS011;8655;57.106;-2.088;2023-11-22T06:36:06;0.50;;;0.50;;
17079;SDS011;8655;57.106;-2.088;2023-11-22T06:38:31;0.40;;;0.40;;
17079;SDS011;8655;57.106;-2.088;2023-11-22T06:40:57;0.83;;;0.70;;
17079;SDS011;8655;57.106;-2.088;2023-11-22T06:43:23;0.40;;;0.40;;
17079;SDS011;8655;57.106;-2.088;2023-11-22T06:45:48;0.67;;;0.40;;
17079;SDS011;8655;57.106;-2.088;2023-11-22T06:48:15;0.67;;;0.50;;
17079;SDS011;8655;57.106;-2.088;2023-11-22T06:50:41;0.60;;;0.30;;
17079;SDS011;8655;57.106;-2.088;2023-11-22T06:53:07;0.50;;;0.43;;
17079;SDS011;8655;57.106;-2.088;2023-11-22T06:55:33;0.60;;;0.60;;
17079;SDS011;8655;57.106;-2.088;2023-11-22T06:57:59;0.73;;;0.50;;
17079;SDS011;8655;57.106;-2.088;2023-11-22T07:00:24;0.50;;;0.50;;
17079;SDS011;8655;57.106;-2.088;2023-11-22T07:02:52;0.30;;;0.30;;
17079;SDS011;8655;57.106;-2.088;2023-11-22T07:05:18;0.40;;;0.40;;
17079;SDS011;8655;57.106;-2.088;2023-11-22T07:07:44;0.50;;;0.50;;
17079;SDS011;8655;57.106;-2.088;2023-11-22T07:10:09;0.33;;;0.33;;
17079;SDS011;8655;57.106;-2.088;2023-11-22T07:12:36;0.60;;;0.40;;
17079;SDS011;8655;57.106;-2.088;2023-11-22T07:15:03;0.50;;;0.50;;
17079;SDS011;8655;57.106;-2.088;2023-11-22T07:17:30;0.70;;;0.50;;
17079;SDS011;8655;57.106;-2.088;2023-11-22T07:19:58;0.53;;;0.40;;
17079;SDS011;8655;57.106;-2.088;2023-11-22T07:22:24;0.30;;;0.30;;
17079;SDS011;8655;57.106;-2.088;2023-11-22T07:24:51;0.60;;;0.57;;
17079;SDS011;8655;57.106;-2.088;2023-11-22T07:27:19;0.53;;;0.40;;
17079;SDS011;8655;57.106;-2.088;2023-11-22T07:29:45;0.40;;;0.40;;
17079;SDS011;8655;57.106;-2.088;2023-11-22T07:32:12;0.40;;;0.40;;
17079;SDS011;8655;57.106;-2.088;2023-11-22T07:34:38;0.50;;;0.40;;
17079;SDS011;8655;57.106;-2.088;2023-11-22T07:37:05;0.70;;;0.50;;
17079;SDS011;8655;57.106;-2.088;2023-11-22T07:39:35;0.30;;;0.30;;
17079;SDS011;8655;57.106;-2.088;2023-11-22T07:42:01;0.30;;;0.30;;
17079;SDS011;8655;57.106;-2.088;2023-11-22T07:44:28;0.30;;;0.30;;
17079;SDS011;8655;57.106;-2.088;2023-11-22T07:46:57;0.33;;;0.33;;
17079;SDS011;8655;57.106;-2.088;2023-11-22T07:49:24;0.50;;;0.50;;
17079;SDS011;8655;57.106;-2.088;2023-11-22T07:51:50;0.90;;;0.50;;
17079;SDS011;8655;57.106;-2.088;2023-11-22T07:54:18;0.20;;;0.20;;
17079;SDS011;8655;57.106;-2.088;2023-11-22T07:56:47;0.30;;;0.30;;
17079;SDS011;8655;57.106;-2.088;2023-11-22T07:59:17;0.40;;;0.40;;
17079;SDS011;8655;57.106;-2.088;2023-11-22T08:01:43;0.30;;;0.30;;
17079;SDS011;8655;57.106;-2.088;2023-11-22T08:04:10;0.40;;;0.40;;
17079;SDS011;8655;57.106;-2.088;2023-11-22T08:06:35;0.60;;;0.40;;
17079;SDS011;8655;57.106;-2.088;2023-11-22T08:09:02;0.37;;;0.37;;
17079;SDS011;8655;57.106;-2.088;2023-11-22T08:11:29;0.40;;;0.40;;
17079;SDS011;8655;57.106;-2.088;2023-11-22T08:13:55;0.20;;;0.20;;
17079;SDS011;8655;57.106;-2.088;2023-11-22T08:16:24;0.47;;;0.47;;
17079;SDS011;8655;57.106;-2.088;2023-11-22T08:18:50;0.40;;;0.40;;
17079;SDS011;8655;57.106;-2.088;2023-11-22T08:21:16;0.32;;;0.30;;
17079;SDS011;8655;57.106;-2.088;2023-11-22T08:23:43;0.40;;;0.40;;
17079;SDS011;8655;57.106;-2.088;2023-11-22T08:26:10;0.40;;;0.40;;
17079;SDS011;8655;57.106;-2.088;2023-11-22T08:28:37;0.45;;;0.30;;
17079;SDS011;8655;57.106;-2.088;2023-11-22T08:31:02;0.40;;;0.40;;
17079;SDS011;8655;57.106;-2.088;2023-11-22T08:33:29;1.30;;;0.32;;
17079;SDS011;8655;57.106;-2.088;2023-11-22T08:35:55;0.40;;;0.40;;
17079;SDS011;8655;57.106;-2.088;2023-11-22T08:38:23;0.47;;;0.40;;
17079;SDS011;8655;57.106;-2.088;2023-11-22T08:40:50;0.45;;;0.45;;
17079;SDS011;8655;57.106;-2.088;2023-11-22T08:43:16;0.40;;;0.40;;
17079;SDS011;8655;57.106;-2.088;2023-11-22T08:45:41;0.40;;;0.40;;
17079;SDS011;8655;57.106;-2.088;2023-11-22T08:48:09;0.38;;;0.38;;
17079;SDS011;8655;57.106;-2.088;2023-11-22T08:50:34;0.40;;;0.40;;
17079;SDS011;8655;57.106;-2.088;2023-11-22T08:53:00;0.28;;;0.28;;
17079;SDS011;8655;57.106;-2.088;2023-11-22T08:55:26;0.32;;;0.32;;
17079;SDS011;8655;57.106;-2.088;2023-11-22T08:57:51;0.32;;;0.32;;
17079;SDS011;8655;57.106;-2.088;2023-11-22T09:00:17;0.30;;;0.30;;
17079;SDS011;8655;57.106;-2.088;2023-11-22T09:02:50;0.40;;;0.35;;
17079;SDS011;8655;57.106;-2.088;2023-11-22T09:05:16;0.30;;;0.30;;
17079;SDS011;8655;57.106;-2.088;2023-11-22T09:07:44;0.32;;;0.32;;
17079;SDS011;8655;57.106;-2.088;2023-11-22T09:10:11;0.30;;;0.30;;
17079;SDS011;8655;57.106;-2.088;2023-11-22T09:12:41;0.25;;;0.25;;
17079;SDS011;8655;57.106;-2.088;2023-11-22T09:15:09;0.38;;;0.38;;
17079;SDS011;8655;57.106;-2.088;2023-11-22T09:17:41;0.28;;;0.28;;
17079;SDS011;8655;57.106;-2.088;2023-11-22T09:20:17;0.40;;;0.40;;
17079;SDS011;8655;57.106;-2.088;2023-11-22T09:22:47;0.30;;;0.30;;
17079;SDS011;8655;57.106;-2.088;2023-11-22T09:25:15;0.20;;;0.20;;
17079;SDS011;8655;57.106;-2.088;2023-11-22T09:27:45;0.43;;;0.43;;
17079;SDS011;8655;57.106;-2.088;2023-11-22T09:30:16;0.30;;;0.30;;
17079;SDS011;8655;57.106;-2.088;2023-11-22T09:32:59;0.40;;;0.40;;
17079;SDS011;8655;57.106;-2.088;2023-11-22T09:35:25;0.30;;;0.30;;
17079;SDS011;8655;57.106;-2.088;2023-11-22T09:37:50;0.20;;;0.20;;
17079;SDS011;8655;57.106;-2.088;2023-11-22T09:40:17;0.20;;;0.20;;
17079;SDS011;8655;57.106;-2.088;2023-11-22T09:42:44;0.28;;;0.28;;
17079;SDS011;8655;57.106;-2.088;2023-11-22T09:45:15;0.33;;;0.33;;
17079;SDS011;8655;57.106;-2.088;2023-11-22T09:47:43;0.30;;;0.30;;
17079;SDS011;8655;57.106;-2.088;2023-11-22T09:50:10;0.30;;;0.30;;
17079;SDS011;8655;57.106;-2.088;2023-11-22T09:52:43;0.40;;;0.40;;
17079;SDS011;8655;57.106;-2.088;2023-11-22T09:55:14;0.30;;;0.30;;
17079;SDS011;8655;57.106;-2.088;2023-11-22T09:57:40;0.30;;;0.30;;
17079;SDS011;8655;57.106;-2.088;2023-11-22T10:00:07;0.22;;;0.22;;
17079;SDS011;8655;57.106;-2.088;2023-11-22T10:02:39;0.55;;;0.20;;
17079;SDS011;8655;57.106;-2.088;2023-11-22T10:05:06;0.40;;;0.40;;
17079;SDS011;8655;57.106;-2.088;2023-11-22T10:07:33;0.40;;;0.40;;
17079;SDS011;8655;57.106;-2.088;2023-11-22T10:10:01;0.20;;;0.20;;
17079;SDS011;8655;57.106;-2.088;2023-11-22T10:12:31;0.43;;;0.43;;
17079;SDS011;8655;57.106;-2.088;2023-11-22T10:15:11;0.33;;;0.33;;
17079;SDS011;8655;57.106;-2.088;2023-11-22T10:17:37;0.20;;;0.20;;
17079;SDS011;8655;57.106;-2.088;2023-11-22T10:20:03;0.30;;;0.30;;
17079;SDS011;8655;57.106;-2.088;2023-11-22T10:22:42;0.30;;;0.30;;
17079;SDS011;8655;57.106;-2.088;2023-11-22T10:25:10;0.20;;;0.20;;
17079;SDS011;8655;57.106;-2.088;2023-11-22T10:27:38;0.20;;;0.20;;
17079;SDS011;8655;57.106;-2.088;2023-11-22T10:30:04;0.30;;;0.30;;
17079;SDS011;8655;57.106;-2.088;2023-11-22T10:32:30;0.30;;;0.30;;
17079;SDS011;8655;57.106;-2.088;2023-11-22T10:34:56;0.33;;;0.33;;
17079;SDS011;8655;57.106;-2.088;2023-11-22T10:37:22;0.40;;;0.40;;
17079;SDS011;8655;57.106;-2.088;2023-11-22T10:39:50;0.20;;;0.20;;
17079;SDS011;8655;57.106;-2.088;2023-11-22T10:42:16;0.30;;;0.30;;
17079;SDS011;8655;57.106;-2.088;2023-11-22T10:44:44;0.30;;;0.30;;
17079;SDS011;8655;57.106;-2.088;2023-11-22T10:47:12;0.25;;;0.25;;
17079;SDS011;8655;57.106;-2.088;2023-11-22T10:49:44;0.20;;;0.20;;
17079;SDS011;8655;57.106;-2.088;2023-11-22T10:52:10;0.20;;;0.20;;
17079;SDS011;8655;57.106;-2.088;2023-11-22T10:54:39;0.40;;;0.30;;
17079;SDS011;8655;57.106;-2.088;2023-11-22T10:57:09;0.20;;;0.20;;
17079;SDS011;8655;57.106;-2.088;2023-11-22T10:59:38;0.30;;;0.30;;
17079;SDS011;8655;57.106;-2.088;2023-11-22T11:02:10;0.38;;;0.38;;
17079;SDS011;8655;57.106;-2.088;2023-11-22T11:04:46;0.40;;;0.40;;
17079;SDS011;8655;57.106;-2.088;2023-11-22T11:07:16;0.20;;;0.20;;
17079;SDS011;8655;57.106;-2.088;2023-11-22T11:09:47;0.20;;;0.20;;
17079;SDS011;8655;57.106;-2.088;2023-11-22T11:12:16;0.30;;;0.30;;
17079;SDS011;8655;57.106;-2.088;2023-11-22T11:14:43;0.30;;;0.30;;
17079;SDS011;8655;57.106;-2.088;2023-11-22T11:17:11;0.20;;;0.20;;
17079;SDS011;8655;57.106;-2.088;2023-11-22T11:19:39;0.45;;;0.45;;
17079;SDS011;8655;57.106;-2.088;2023-11-22T11:22:09;0.30;;;0.30;;
17079;SDS011;8655;57.106;-2.088;2023-11-22T11:24:39;0.60;;;0.40;;
17079;SDS011;8655;57.106;-2.088;2023-11-22T11:27:06;0.35;;;0.35;;
17079;SDS011;8655;57.106;-2.088;2023-11-22T11:29:36;0.30;;;0.30;;
17079;SDS011;8655;57.106;-2.088;2023-11-22T11:32:11;0.20;;;0.20;;
17079;SDS011;8655;57.106;-2.088;2023-11-22T11:34:47;0.20;;;0.20;;
17079;SDS011;8655;57.106;-2.088;2023-11-22T11:37:19;0.20;;;0.20;;
17079;SDS011;8655;57.106;-2.088;2023-11-22T11:39:45;0.30;;;0.30;;
17079;SDS011;8655;57.106;-2.088;2023-11-22T11:42:11;0.30;;;0.30;;
17079;SDS011;8655;57.106;-2.088;2023-11-22T11:44:50;0.30;;;0.30;;
17079;SDS011;8655;57.106;-2.088;2023-11-22T11:47:22;0.20;;;0.20;;
17079;SDS011;8655;57.106;-2.088;2023-11-22T11:49:50;0.57;;;0.40;;
17079;SDS011;8655;57.106;-2.088;2023-11-22T11:52:16;0.33;;;0.30;;
17079;SDS011;8655;57.106;-2.088;2023-11-22T11:54:42;0.30;;;0.30;;
17079;SDS011;8655;57.106;-2.088;2023-11-22T11:57:08;0.20;;;0.20;;
17079;SDS011;8655;57.106;-2.088;2023-11-22T11:59:34;0.30;;;0.30;;
17079;SDS011;8655;57.106;-2.088;2023-11-22T12:02:00;0.30;;;0.30;;
17079;SDS011;8655;57.106;-2.088;2023-11-22T12:04:26;0.22;;;0.22;;
17079;SDS011;8655;57.106;-2.088;2023-11-22T12:06:52;0.63;;;0.40;;
17079;SDS011;8655;57.106;-2.088;2023-11-22T12:09:26;0.30;;;0.30;;
17079;SDS011;8655;57.106;-2.088;2023-11-22T12:11:54;0.40;;;0.40;;
17079;SDS011;8655;57.106;-2.088;2023-11-22T12:14:20;0.23;;;0.23;;
17079;SDS011;8655;57.106;-2.088;2023-11-22T12:16:50;0.20;;;0.20;;
17079;SDS011;8655;57.106;-2.088;2023-11-22T12:19:26;0.30;;;0.30;;
17079;SDS011;8655;57.106;-2.088;2023-11-22T12:21:53;0.40;;;0.30;;
17079;SDS011;8655;57.106;-2.088;2023-11-22T12:24:19;0.30;;;0.20;;
17079;SDS011;8655;57.106;-2.088;2023-11-22T12:26:45;0.30;;;0.30;;
17079;SDS011;8655;57.106;-2.088;2023-11-22T12:29:14;0.30;;;0.30;;
17079;SDS011;8655;57.106;-2.088;2023-11-22T12:31:47;0.50;;;0.50;;
17079;SDS011;8655;57.106;-2.088;2023-11-22T12:34:20;0.30;;;0.30;;
17079;SDS011;8655;57.106;-2.088;2023-11-22T12:36:46;0.30;;;0.30;;
17079;SDS011;8655;57.106;-2.088;2023-11-22T12:39:12;0.30;;;0.30;;
17079;SDS011;8655;57.106;-2.088;2023-11-22T12:41:48;0.20;;;0.20;;
17079;SDS011;8655;57.106;-2.088;2023-11-22T12:44:16;0.20;;;0.20;;
17079;SDS011;8655;57.106;-2.088;2023-11-22T12:46:45;0.30;;;0.30;;
17079;SDS011;8655;57.106;-2.088;2023-11-22T12:49:21;0.20;;;0.20;;
17079;SDS011;8655;57.106;-2.088;2023-11-22T12:51:51;0.20;;;0.20;;
17079;SDS011;8655;57.106;-2.088;2023-11-22T12:54:18;0.20;;;0.20;;
17079;SDS011;8655;57.106;-2.088;2023-11-22T12:56:47;0.20;;;0.20;;
17079;SDS011;8655;57.106;-2.088;2023-11-22T12:59:14;0.30;;;0.30;;
17079;SDS011;8655;57.106;-2.088;2023-11-22T13:01:40;0.30;;;0.30;;
17079;SDS011;8655;57.106;-2.088;2023-11-22T13:04:06;0.30;;;0.30;;
17079;SDS011;8655;57.106;-2.088;2023-11-22T13:06:32;0.40;;;0.40;;
17079;SDS011;8655;57.106;-2.088;2023-11-22T13:08:57;0.30;;;0.30;;
17079;SDS011;8655;57.106;-2.088;2023-11-22T13:11:23;0.40;;;0.40;;
17079;SDS011;8655;57.106;-2.088;2023-11-22T13:13:49;0.40;;;0.40;;
17079;SDS011;8655;57.106;-2.088;2023-11-22T13:16:15;0.47;;;0.30;;
17079;SDS011;8655;57.106;-2.088;2023-11-22T13:18:44;0.20;;;0.20;;
17079;SDS011;8655;57.106;-2.088;2023-11-22T13:21:09;0.20;;;0.20;;
17079;SDS011;8655;57.106;-2.088;2023-11-22T13:23:35;0.30;;;0.30;;
17079;SDS011;8655;57.106;-2.088;2023-11-22T13:26:01;0.30;;;0.30;;
17079;SDS011;8655;57.106;-2.088;2023-11-22T13:28:28;0.30;;;0.30;;
17079;SDS011;8655;57.106;-2.088;2023-11-22T13:30:53;0.30;;;0.30;;
17079;SDS011;8655;57.106;-2.088;2023-11-22T13:33:19;0.20;;;0.20;;
17079;SDS011;8655;57.106;-2.088;2023-11-22T13:35:45;0.27;;;0.27;;
17079;SDS011;8655;57.106;-2.088;2023-11-22T13:38:12;0.20;;;0.20;;
17079;SDS011;8655;57.106;-2.088;2023-11-22T13:40:38;0.40;;;0.40;;
17079;SDS011;8655;57.106;-2.088;2023-11-22T13:43:05;0.20;;;0.20;;
17079;SDS011;8655;57.106;-2.088;2023-11-22T13:45:31;0.23;;;0.23;;
17079;SDS011;8655;57.106;-2.088;2023-11-22T13:47:58;0.20;;;0.20;;
17079;SDS011;8655;57.106;-2.088;2023-11-22T13:50:31;0.20;;;0.20;;
17079;SDS011;8655;57.106;-2.088;2023-11-22T13:52:58;0.30;;;0.30;;
17079;SDS011;8655;57.106;-2.088;2023-11-22T13:55:24;0.20;;;0.20;;
17079;SDS011;8655;57.106;-2.088;2023-11-22T13:57:53;0.20;;;0.20;;
17079;SDS011;8655;57.106;-2.088;2023-11-22T14:00:21;0.30;;;0.30;;
17079;SDS011;8655;57.106;-2.088;2023-11-22T14:02:49;0.23;;;0.23;;
17079;SDS011;8655;57.106;-2.088;2023-11-22T14:05:31;0.20;;;0.20;;
17079;SDS011;8655;57.106;-2.088;2023-11-22T14:07:57;0.30;;;0.30;;
17079;SDS011;8655;57.106;-2.088;2023-11-22T14:10:23;0.10;;;0.10;;
17079;SDS011;8655;57.106;-2.088;2023-11-22T14:12:49;0.30;;;0.30;;
17079;SDS011;8655;57.106;-2.088;2023-11-22T14:15:16;0.30;;;0.30;;
17079;SDS011;8655;57.106;-2.088;2023-11-22T14:17:42;0.20;;;0.20;;
17079;SDS011;8655;57.106;-2.088;2023-11-22T14:20:08;0.47;;;0.30;;
17079;SDS011;8655;57.106;-2.088;2023-11-22T14:22:38;0.30;;;0.30;;
17079;SDS011;8655;57.106;-2.088;2023-11-22T14:25:04;0.20;;;0.20;;
17079;SDS011;8655;57.106;-2.088;2023-11-22T14:27:36;0.27;;;0.27;;
17079;SDS011;8655;57.106;-2.088;2023-11-22T14:30:04;0.20;;;0.20;;
17079;SDS011;8655;57.106;-2.088;2023-11-22T14:32:33;0.30;;;0.30;;
17079;SDS011;8655;57.106;-2.088;2023-11-22T14:34:59;0.40;;;0.30;;
17079;SDS011;8655;57.106;-2.088;2023-11-22T14:37:28;0.20;;;0.20;;
17079;SDS011;8655;57.106;-2.088;2023-11-22T14:39:55;0.20;;;0.20;;
17079;SDS011;8655;57.106;-2.088;2023-11-22T14:42:24;0.50;;;0.30;;
17079;SDS011;8655;57.106;-2.088;2023-11-22T14:44:50;0.10;;;0.10;;
17079;SDS011;8655;57.106;-2.088;2023-11-22T14:47:16;0.27;;;0.27;;
17079;SDS011;8655;57.106;-2.088;2023-11-22T14:49:48;0.20;;;0.20;;